sensor_id;sensor_type;location;lat;lon;timestamp;P1;durP1;ratioP1;P2;durP2;ratioP2
9473;SDS011;8865;47.636;7.692;2023-04-03T00:02:20;6.07;;;5.47;;
9473;SDS011;8865;47.636;7.692;2023-04-03T00:04:46;6.30;;;5.70;;
9473;SDS011;8865;47.636;7.692;2023-04-03T00:07:12;5.97;;;5.47;;
9473;SDS011;8865;47.636;7.692;2023-04-03T00:09:40;6.70;;;6.10;;
9473;SDS011;8865;47.636;7.692;2023-04-03T00:12:06;6.70;;;6.10;;
9473;SDS011;8865;47.636;7.692;2023-04-03T00:14:32;6.20;;;5.57;;
9473;SDS011;8865;47.636;7.692;2023-04-03T00:16:58;6.87;;;6.10;;
9473;SDS011;8865;47.636;7.692;2023-04-03T00:19:24;6.80;;;6.20;;
9473;SDS011;8865;47.636;7.692;2023-04-03T00:21:50;7.27;;;6.60;;
9473;SDS011;8865;47.636;7.692;2023-04-03T00:24:16;6.93;;;6.33;;
9473;SDS011;8865;47.636;7.692;2023-04-03T00:26:42;6.40;;;5.80;;
9473;SDS011;8865;47.636;7.692;2023-04-03T00:29:08;6.93;;;6.33;;
9473;SDS011;8865;47.636;7.692;2023-04-03T00:31:34;6.40;;;5.90;;
9473;SDS011;8865;47.636;7.692;2023-04-03T00:33:59;6.23;;;5.73;;
9473;SDS011;8865;47.636;7.692;2023-04-03T00:36:25;6.33;;;5.73;;
9473;SDS011;8865;47.636;7.692;2023-04-03T00:38:51;6.37;;;5.80;;
9473;SDS011;8865;47.636;7.692;2023-04-03T00:41:17;5.70;;;5.20;;
9473;SDS011;8865;47.636;7.692;2023-04-03T00:43:43;5.90;;;5.40;;
9473;SDS011;8865;47.636;7.692;2023-04-03T00:46:10;6.70;;;6.10;;
9473;SDS011;8865;47.636;7.692;2023-04-03T00:48:40;6.17;;;5.67;;
9473;SDS011;8865;47.636;7.692;2023-04-03T00:51:10;6.67;;;6.07;;
9473;SDS011;8865;47.636;7.692;2023-04-03T00:53:46;6.33;;;5.73;;
9473;SDS011;8865;47.636;7.692;2023-04-03T00:56:15;5.53;;;5.03;;
9473;SDS011;8865;47.636;7.692;2023-04-03T00:59:18;5.60;;;5.00;;
9473;SDS011;8865;47.636;7.692;2023-04-03T01:01:38;5.00;;;4.50;;
9473;SDS011;8865;47.636;7.692;2023-04-03T01:04:04;5.60;;;5.10;;
9473;SDS011;8865;47.636;7.692;2023-04-03T01:06:33;5.77;;;5.17;;
9473;SDS011;8865;47.636;7.692;2023-04-03T01:09:02;5.20;;;4.70;;
9473;SDS011;8865;47.636;7.692;2023-04-03T01:11:29;5.00;;;4.60;;
9473;SDS011;8865;47.636;7.692;2023-04-03T01:13:55;5.40;;;5.00;;
9473;SDS011;8865;47.636;7.692;2023-04-03T01:16:21;5.27;;;4.73;;
9473;SDS011;8865;47.636;7.692;2023-04-03T01:18:47;5.43;;;4.97;;
9473;SDS011;8865;47.636;7.692;2023-04-03T01:26:31;5.10;;;4.43;;
9473;SDS011;8865;47.636;7.692;2023-04-03T01:28:58;5.40;;;4.90;;
9473;SDS011;8865;47.636;7.692;2023-04-03T01:31:26;5.47;;;4.97;;
9473;SDS011;8865;47.636;7.692;2023-04-03T01:33:56;5.83;;;5.03;;
9473;SDS011;8865;47.636;7.692;2023-04-03T01:36:27;5.17;;;4.67;;
9473;SDS011;8865;47.636;7.692;2023-04-03T01:38:56;5.03;;;4.60;;
9473;SDS011;8865;47.636;7.692;2023-04-03T01:41:24;5.37;;;4.93;;
9473;SDS011;8865;47.636;7.692;2023-04-03T01:43:51;6.17;;;4.50;;
9473;SDS011;8865;47.636;7.692;2023-04-03T01:46:17;5.47;;;4.97;;
9473;SDS011;8865;47.636;7.692;2023-04-03T01:48:44;4.97;;;4.50;;
9473;SDS011;8865;47.636;7.692;2023-04-03T01:51:10;4.80;;;4.30;;
9473;SDS011;8865;47.636;7.692;2023-04-03T01:53:37;5.17;;;4.47;;
9473;SDS011;8865;47.636;7.692;2023-04-03T01:56:03;4.40;;;4.00;;
9473;SDS011;8865;47.636;7.692;2023-04-03T01:58:30;5.17;;;4.60;;
9473;SDS011;8865;47.636;7.692;2023-04-03T02:00:56;5.00;;;4.50;;
9473;SDS011;8865;47.636;7.692;2023-04-03T02:03:22;5.00;;;4.50;;
9473;SDS011;8865;47.636;7.692;2023-04-03T02:05:49;6.00;;;5.03;;
9473;SDS011;8865;47.636;7.692;2023-04-03T02:08:15;6.90;;;4.90;;
9473;SDS011;8865;47.636;7.692;2023-04-03T02:10:44;5.30;;;4.80;;
9473;SDS011;8865;47.636;7.692;2023-04-03T02:13:12;5.67;;;4.87;;
9473;SDS011;8865;47.636;7.692;2023-04-03T02:15:39;6.90;;;5.03;;
9473;SDS011;8865;47.636;7.692;2023-04-03T02:18:05;6.87;;;4.53;;
9473;SDS011;8865;47.636;7.692;2023-04-03T02:20:32;5.20;;;4.63;;
9473;SDS011;8865;47.636;7.692;2023-04-03T02:22:59;6.87;;;4.60;;
9473;SDS011;8865;47.636;7.692;2023-04-03T02:25:25;5.13;;;4.63;;
9473;SDS011;8865;47.636;7.692;2023-04-03T02:27:51;5.60;;;5.10;;
9473;SDS011;8865;47.636;7.692;2023-04-03T02:30:17;4.97;;;4.47;;
9473;SDS011;8865;47.636;7.692;2023-04-03T02:32:44;6.60;;;4.50;;
9473;SDS011;8865;47.636;7.692;2023-04-03T02:35:10;4.77;;;4.30;;
9473;SDS011;8865;47.636;7.692;2023-04-03T02:37:37;4.90;;;4.47;;
9473;SDS011;8865;47.636;7.692;2023-04-03T02:40:03;7.53;;;5.10;;
9473;SDS011;8865;47.636;7.692;2023-04-03T02:42:30;5.60;;;5.00;;
9473;SDS011;8865;47.636;7.692;2023-04-03T02:44:57;5.53;;;5.00;;
9473;SDS011;8865;47.636;7.692;2023-04-03T02:47:23;5.33;;;4.87;;
9473;SDS011;8865;47.636;7.692;2023-04-03T02:49:49;6.17;;;5.57;;
9473;SDS011;8865;47.636;7.692;2023-04-03T02:52:15;5.30;;;4.80;;
9473;SDS011;8865;47.636;7.692;2023-04-03T02:54:41;5.17;;;4.73;;
9473;SDS011;8865;47.636;7.692;2023-04-03T02:57:07;6.50;;;5.20;;
9473;SDS011;8865;47.636;7.692;2023-04-03T02:59:36;7.03;;;5.33;;
9473;SDS011;8865;47.636;7.692;2023-04-03T03:02:06;5.97;;;5.43;;
9473;SDS011;8865;47.636;7.692;2023-04-03T03:04:33;5.63;;;5.13;;
9473;SDS011;8865;47.636;7.692;2023-04-03T03:07:00;6.43;;;5.47;;
9473;SDS011;8865;47.636;7.692;2023-04-03T03:09:26;6.07;;;5.30;;
9473;SDS011;8865;47.636;7.692;2023-04-03T03:11:52;6.73;;;5.33;;
9473;SDS011;8865;47.636;7.692;2023-04-03T03:14:18;5.60;;;5.10;;
9473;SDS011;8865;47.636;7.692;2023-04-03T03:16:44;5.70;;;5.10;;
9473;SDS011;8865;47.636;7.692;2023-04-03T03:19:10;5.10;;;4.70;;
9473;SDS011;8865;47.636;7.692;2023-04-03T03:21:36;5.43;;;5.00;;
9473;SDS011;8865;47.636;7.692;2023-04-03T03:24:02;5.60;;;5.10;;
9473;SDS011;8865;47.636;7.692;2023-04-03T03:26:28;5.40;;;4.90;;
9473;SDS011;8865;47.636;7.692;2023-04-03T03:28:54;5.73;;;5.13;;
9473;SDS011;8865;47.636;7.692;2023-04-03T03:31:20;5.03;;;4.63;;
9473;SDS011;8865;47.636;7.692;2023-04-03T03:33:46;5.33;;;4.83;;
9473;SDS011;8865;47.636;7.692;2023-04-03T03:36:12;5.30;;;4.80;;
9473;SDS011;8865;47.636;7.692;2023-04-03T03:38:38;6.10;;;4.87;;
9473;SDS011;8865;47.636;7.692;2023-04-03T03:41:04;4.77;;;3.90;;
9473;SDS011;8865;47.636;7.692;2023-04-03T03:43:31;4.60;;;4.17;;
9473;SDS011;8865;47.636;7.692;2023-04-03T03:45:57;4.43;;;4.03;;
9473;SDS011;8865;47.636;7.692;2023-04-03T03:48:23;4.13;;;3.80;;
9473;SDS011;8865;47.636;7.692;2023-04-03T03:50:49;4.40;;;4.00;;
9473;SDS011;8865;47.636;7.692;2023-04-03T03:53:15;4.97;;;4.47;;
9473;SDS011;8865;47.636;7.692;2023-04-03T03:55:41;4.93;;;3.90;;
9473;SDS011;8865;47.636;7.692;2023-04-03T03:58:07;5.67;;;4.20;;
9473;SDS011;8865;47.636;7.692;2023-04-03T04:00:34;4.30;;;3.90;;
9473;SDS011;8865;47.636;7.692;2023-04-03T04:03:00;4.17;;;3.77;;
9473;SDS011;8865;47.636;7.692;2023-04-03T04:05:26;4.00;;;3.60;;
9473;SDS011;8865;47.636;7.692;2023-04-03T04:07:52;4.40;;;4.00;;
9473;SDS011;8865;47.636;7.692;2023-04-03T04:10:18;4.63;;;3.80;;
9473;SDS011;8865;47.636;7.692;2023-04-03T04:12:44;4.20;;;3.80;;
9473;SDS011;8865;47.636;7.692;2023-04-03T04:15:10;3.77;;;3.43;;
9473;SDS011;8865;47.636;7.692;2023-04-03T04:17:36;4.77;;;4.00;;
9473;SDS011;8865;47.636;7.692;2023-04-03T04:20:03;4.30;;;3.90;;
9473;SDS011;8865;47.636;7.692;2023-04-03T04:22:30;4.10;;;3.67;;
9473;SDS011;8865;47.636;7.692;2023-04-03T04:24:56;4.40;;;4.00;;
9473;SDS011;8865;47.636;7.692;2023-04-03T04:27:22;4.33;;;3.90;;
9473;SDS011;8865;47.636;7.692;2023-04-03T04:29:48;10.90;;;8.73;;
9473;SDS011;8865;47.636;7.692;2023-04-03T04:32:14;15.17;;;12.20;;
9473;SDS011;8865;47.636;7.692;2023-04-03T04:34:40;6.90;;;3.90;;
9473;SDS011;8865;47.636;7.692;2023-04-03T04:37:06;4.60;;;4.20;;
9473;SDS011;8865;47.636;7.692;2023-04-03T04:39:32;4.33;;;3.93;;
9473;SDS011;8865;47.636;7.692;2023-04-03T04:41:58;4.30;;;3.80;;
9473;SDS011;8865;47.636;7.692;2023-04-03T04:44:24;4.43;;;3.80;;
9473;SDS011;8865;47.636;7.692;2023-04-03T04:46:50;5.70;;;4.33;;
9473;SDS011;8865;47.636;7.692;2023-04-03T04:49:16;5.93;;;5.07;;
9473;SDS011;8865;47.636;7.692;2023-04-03T04:51:42;9.13;;;7.33;;
9473;SDS011;8865;47.636;7.692;2023-04-03T04:54:08;5.50;;;4.60;;
9473;SDS011;8865;47.636;7.692;2023-04-03T04:56:34;4.70;;;4.00;;
9473;SDS011;8865;47.636;7.692;2023-04-03T04:59:00;5.13;;;4.60;;
9473;SDS011;8865;47.636;7.692;2023-04-03T05:01:26;4.93;;;4.43;;
9473;SDS011;8865;47.636;7.692;2023-04-03T05:03:52;4.60;;;4.20;;
9473;SDS011;8865;47.636;7.692;2023-04-03T05:06:19;4.70;;;4.30;;
9473;SDS011;8865;47.636;7.692;2023-04-03T05:08:45;4.47;;;3.80;;
9473;SDS011;8865;47.636;7.692;2023-04-03T05:11:11;5.27;;;4.23;;
9473;SDS011;8865;47.636;7.692;2023-04-03T05:13:37;5.37;;;4.13;;
9473;SDS011;8865;47.636;7.692;2023-04-03T05:16:03;5.53;;;4.50;;
9473;SDS011;8865;47.636;7.692;2023-04-03T05:18:29;4.70;;;4.27;;
9473;SDS011;8865;47.636;7.692;2023-04-03T05:20:55;4.40;;;4.00;;
9473;SDS011;8865;47.636;7.692;2023-04-03T05:23:21;5.33;;;3.90;;
9473;SDS011;8865;47.636;7.692;2023-04-03T05:25:47;4.57;;;4.10;;
9473;SDS011;8865;47.636;7.692;2023-04-03T05:28:14;4.77;;;4.13;;
9473;SDS011;8865;47.636;7.692;2023-04-03T05:30:40;4.77;;;4.37;;
9473;SDS011;8865;47.636;7.692;2023-04-03T05:33:06;20.17;;;15.07;;
9473;SDS011;8865;47.636;7.692;2023-04-03T05:35:32;9.43;;;7.17;;
9473;SDS011;8865;47.636;7.692;2023-04-03T05:37:58;5.07;;;3.90;;
9473;SDS011;8865;47.636;7.692;2023-04-03T05:40:24;4.83;;;4.20;;
9473;SDS011;8865;47.636;7.692;2023-04-03T05:42:51;5.30;;;4.13;;
9473;SDS011;8865;47.636;7.692;2023-04-03T05:45:19;5.43;;;3.80;;
9473;SDS011;8865;47.636;7.692;2023-04-03T05:47:45;5.07;;;4.57;;
9473;SDS011;8865;47.636;7.692;2023-04-03T05:50:11;5.20;;;4.63;;
9473;SDS011;8865;47.636;7.692;2023-04-03T05:52:38;4.73;;;4.23;;
9473;SDS011;8865;47.636;7.692;2023-04-03T05:55:08;5.47;;;4.13;;
9473;SDS011;8865;47.636;7.692;2023-04-03T05:57:34;6.33;;;4.40;;
9473;SDS011;8865;47.636;7.692;2023-04-03T06:00:00;4.20;;;3.80;;
9473;SDS011;8865;47.636;7.692;2023-04-03T06:02:26;5.07;;;4.17;;
9473;SDS011;8865;47.636;7.692;2023-04-03T06:04:52;5.27;;;4.50;;
9473;SDS011;8865;47.636;7.692;2023-04-03T06:07:22;5.37;;;4.20;;
9473;SDS011;8865;47.636;7.692;2023-04-03T06:09:49;5.00;;;3.73;;
9473;SDS011;8865;47.636;7.692;2023-04-03T06:12:19;5.10;;;4.60;;
9473;SDS011;8865;47.636;7.692;2023-04-03T06:14:45;4.90;;;4.40;;
9473;SDS011;8865;47.636;7.692;2023-04-03T06:17:12;4.57;;;3.80;;
9473;SDS011;8865;47.636;7.692;2023-04-03T06:19:39;5.60;;;4.87;;
9473;SDS011;8865;47.636;7.692;2023-04-03T06:22:06;6.27;;;4.80;;
9473;SDS011;8865;47.636;7.692;2023-04-03T06:24:32;5.33;;;4.77;;
9473;SDS011;8865;47.636;7.692;2023-04-03T06:26:58;5.10;;;4.60;;
9473;SDS011;8865;47.636;7.692;2023-04-03T06:29:24;5.87;;;5.27;;
9473;SDS011;8865;47.636;7.692;2023-04-03T06:31:51;6.10;;;5.50;;
9473;SDS011;8865;47.636;7.692;2023-04-03T06:34:17;5.20;;;4.70;;
9473;SDS011;8865;47.636;7.692;2023-04-03T06:36:43;5.67;;;4.87;;
9473;SDS011;8865;47.636;7.692;2023-04-03T06:39:12;4.90;;;4.50;;
9473;SDS011;8865;47.636;7.692;2023-04-03T06:41:40;5.03;;;4.63;;
9473;SDS011;8865;47.636;7.692;2023-04-03T06:44:06;4.80;;;4.40;;
9473;SDS011;8865;47.636;7.692;2023-04-03T06:46:36;4.93;;;4.43;;
9473;SDS011;8865;47.636;7.692;2023-04-03T06:49:04;5.83;;;5.03;;
9473;SDS011;8865;47.636;7.692;2023-04-03T06:51:33;5.40;;;4.90;;
9473;SDS011;8865;47.636;7.692;2023-04-03T06:54:01;5.73;;;5.13;;
9473;SDS011;8865;47.636;7.692;2023-04-03T06:56:28;5.60;;;5.00;;
9473;SDS011;8865;47.636;7.692;2023-04-03T06:58:55;5.63;;;5.10;;
9473;SDS011;8865;47.636;7.692;2023-04-03T07:01:23;5.67;;;5.10;;
9473;SDS011;8865;47.636;7.692;2023-04-03T07:03:51;5.67;;;5.17;;
9473;SDS011;8865;47.636;7.692;2023-04-03T07:06:18;5.57;;;5.07;;
9473;SDS011;8865;47.636;7.692;2023-04-03T07:08:46;6.13;;;5.50;;
9473;SDS011;8865;47.636;7.692;2023-04-03T07:11:14;6.47;;;5.73;;
9473;SDS011;8865;47.636;7.692;2023-04-03T07:13:41;6.37;;;5.77;;
9473;SDS011;8865;47.636;7.692;2023-04-03T07:16:07;6.20;;;5.60;;
9473;SDS011;8865;47.636;7.692;2023-04-03T07:18:34;6.47;;;5.43;;
9473;SDS011;8865;47.636;7.692;2023-04-03T07:21:01;6.33;;;5.30;;
9473;SDS011;8865;47.636;7.692;2023-04-03T07:23:27;6.00;;;5.40;;
9473;SDS011;8865;47.636;7.692;2023-04-03T07:25:54;6.53;;;5.93;;
9473;SDS011;8865;47.636;7.692;2023-04-03T07:28:20;6.57;;;5.93;;
9473;SDS011;8865;47.636;7.692;2023-04-03T07:30:48;7.53;;;5.30;;
9473;SDS011;8865;47.636;7.692;2023-04-03T07:33:17;6.27;;;5.67;;
9473;SDS011;8865;47.636;7.692;2023-04-03T07:35:44;6.57;;;5.80;;
9473;SDS011;8865;47.636;7.692;2023-04-03T07:38:11;6.23;;;5.63;;
9473;SDS011;8865;47.636;7.692;2023-04-03T07:40:38;14.63;;;10.83;;
9473;SDS011;8865;47.636;7.692;2023-04-03T07:43:04;8.43;;;6.93;;
9473;SDS011;8865;47.636;7.692;2023-04-03T07:45:31;7.57;;;6.77;;
9473;SDS011;8865;47.636;7.692;2023-04-03T07:47:57;9.30;;;6.97;;
9473;SDS011;8865;47.636;7.692;2023-04-03T07:50:23;6.10;;;5.50;;
9473;SDS011;8865;47.636;7.692;2023-04-03T07:52:49;5.53;;;5.03;;
9473;SDS011;8865;47.636;7.692;2023-04-03T07:55:16;5.70;;;5.20;;
9473;SDS011;8865;47.636;7.692;2023-04-03T07:57:42;5.63;;;5.13;;
9473;SDS011;8865;47.636;7.692;2023-04-03T08:00:09;7.63;;;4.97;;
9473;SDS011;8865;47.636;7.692;2023-04-03T08:02:35;6.17;;;5.57;;
9473;SDS011;8865;47.636;7.692;2023-04-03T08:05:02;6.00;;;5.40;;
9473;SDS011;8865;47.636;7.692;2023-04-03T08:07:28;7.27;;;5.70;;
9473;SDS011;8865;47.636;7.692;2023-04-03T08:09:54;6.03;;;5.30;;
9473;SDS011;8865;47.636;7.692;2023-04-03T08:12:20;6.10;;;5.60;;
9473;SDS011;8865;47.636;7.692;2023-04-03T08:14:46;6.80;;;5.70;;
9473;SDS011;8865;47.636;7.692;2023-04-03T08:17:12;5.67;;;5.17;;
9473;SDS011;8865;47.636;7.692;2023-04-03T08:19:39;6.30;;;5.70;;
9473;SDS011;8865;47.636;7.692;2023-04-03T08:22:05;5.60;;;5.10;;
9473;SDS011;8865;47.636;7.692;2023-04-03T08:24:32;5.67;;;5.10;;
9473;SDS011;8865;47.636;7.692;2023-04-03T08:26:59;5.60;;;4.87;;
9473;SDS011;8865;47.636;7.692;2023-04-03T08:29:25;5.50;;;5.00;;
9473;SDS011;8865;47.636;7.692;2023-04-03T08:31:52;5.60;;;5.10;;
9473;SDS011;8865;47.636;7.692;2023-04-03T08:34:18;6.30;;;5.70;;
9473;SDS011;8865;47.636;7.692;2023-04-03T08:36:45;4.83;;;4.43;;
9473;SDS011;8865;47.636;7.692;2023-04-03T08:39:11;4.87;;;4.40;;
9473;SDS011;8865;47.636;7.692;2023-04-03T08:41:38;5.20;;;4.20;;
9473;SDS011;8865;47.636;7.692;2023-04-03T08:46:47;4.00;;;3.70;;
9473;SDS011;8865;47.636;7.692;2023-04-03T08:49:36;4.50;;;4.10;;
9473;SDS011;8865;47.636;7.692;2023-04-03T08:52:04;5.10;;;4.70;;
9473;SDS011;8865;47.636;7.692;2023-04-03T08:54:45;5.17;;;4.20;;
9473;SDS011;8865;47.636;7.692;2023-04-03T08:57:16;4.10;;;3.70;;
9473;SDS011;8865;47.636;7.692;2023-04-03T08:59:44;3.90;;;3.60;;
9473;SDS011;8865;47.636;7.692;2023-04-03T09:02:24;4.10;;;3.70;;
9473;SDS011;8865;47.636;7.692;2023-04-03T09:04:54;4.10;;;3.70;;
9473;SDS011;8865;47.636;7.692;2023-04-03T09:07:32;4.03;;;3.60;;
9473;SDS011;8865;47.636;7.692;2023-04-03T09:10:03;4.50;;;4.10;;
9473;SDS011;8865;47.636;7.692;2023-04-03T09:12:37;4.80;;;4.40;;
9473;SDS011;8865;47.636;7.692;2023-04-03T09:15:23;4.07;;;3.77;;
9473;SDS011;8865;47.636;7.692;2023-04-03T09:17:57;4.20;;;3.80;;
9473;SDS011;8865;47.636;7.692;2023-04-03T09:20:37;4.20;;;3.90;;
9473;SDS011;8865;47.636;7.692;2023-04-03T09:23:41;5.63;;;4.63;;
9473;SDS011;8865;47.636;7.692;2023-04-03T09:26:01;4.70;;;4.17;;
9473;SDS011;8865;47.636;7.692;2023-04-03T09:28:32;4.63;;;4.23;;
9473;SDS011;8865;47.636;7.692;2023-04-03T09:31:03;4.60;;;4.20;;
9473;SDS011;8865;47.636;7.692;2023-04-03T09:33:42;4.73;;;4.27;;
9473;SDS011;8865;47.636;7.692;2023-04-03T09:36:08;5.10;;;4.60;;
9473;SDS011;8865;47.636;7.692;2023-04-03T09:38:34;4.53;;;4.23;;
9473;SDS011;8865;47.636;7.692;2023-04-03T09:41:05;5.53;;;4.20;;
9473;SDS011;8865;47.636;7.692;2023-04-03T09:43:51;4.30;;;3.90;;
9473;SDS011;8865;47.636;7.692;2023-04-03T09:46:25;4.53;;;4.13;;
9473;SDS011;8865;47.636;7.692;2023-04-03T09:49:02;4.17;;;3.77;;
9473;SDS011;8865;47.636;7.692;2023-04-03T09:51:31;4.20;;;3.80;;
9473;SDS011;8865;47.636;7.692;2023-04-03T09:53:58;4.17;;;3.77;;
9473;SDS011;8865;47.636;7.692;2023-04-03T09:56:28;4.00;;;3.70;;
9473;SDS011;8865;47.636;7.692;2023-04-03T10:01:37;5.90;;;3.87;;
9473;SDS011;8865;47.636;7.692;2023-04-03T10:06:59;4.00;;;3.70;;
9473;SDS011;8865;47.636;7.692;2023-04-03T10:09:25;4.17;;;3.73;;
9473;SDS011;8865;47.636;7.692;2023-04-03T10:14:27;3.60;;;3.30;;
9473;SDS011;8865;47.636;7.692;2023-04-03T10:17:03;3.63;;;3.20;;
9473;SDS011;8865;47.636;7.692;2023-04-03T10:19:52;3.80;;;3.50;;
9473;SDS011;8865;47.636;7.692;2023-04-03T10:25:09;3.80;;;3.07;;
9473;SDS011;8865;47.636;7.692;2023-04-03T10:28:02;3.33;;;3.10;;
9473;SDS011;8865;47.636;7.692;2023-04-03T10:36:19;2.23;;;1.80;;
9473;SDS011;8865;47.636;7.692;2023-04-03T10:41:47;2.70;;;1.93;;
9473;SDS011;8865;47.636;7.692;2023-04-03T10:47:28;1.70;;;1.60;;
9473;SDS011;8865;47.636;7.692;2023-04-03T10:50:10;1.73;;;1.40;;
9473;SDS011;8865;47.636;7.692;2023-04-03T10:52:48;1.63;;;1.53;;
9473;SDS011;8865;47.636;7.692;2023-04-03T10:58:03;2.13;;;1.50;;
9473;SDS011;8865;47.636;7.692;2023-04-03T11:00:45;1.70;;;1.40;;
9473;SDS011;8865;47.636;7.692;2023-04-03T11:03:24;1.60;;;1.40;;
9473;SDS011;8865;47.636;7.692;2023-04-03T11:05:56;1.30;;;1.20;;
9473;SDS011;8865;47.636;7.692;2023-04-03T11:08:29;1.27;;;1.20;;
9473;SDS011;8865;47.636;7.692;2023-04-03T11:10:59;1.93;;;1.47;;
9473;SDS011;8865;47.636;7.692;2023-04-03T11:13:33;1.30;;;1.20;;
9473;SDS011;8865;47.636;7.692;2023-04-03T11:16:03;1.40;;;1.30;;
9473;SDS011;8865;47.636;7.692;2023-04-03T11:18:32;2.43;;;1.47;;
9473;SDS011;8865;47.636;7.692;2023-04-03T11:21:10;1.30;;;1.20;;
9473;SDS011;8865;47.636;7.692;2023-04-03T11:23:47;1.30;;;1.20;;
9473;SDS011;8865;47.636;7.692;2023-04-03T11:26:15;1.13;;;1.03;;
9473;SDS011;8865;47.636;7.692;2023-04-03T11:28:43;1.10;;;1.00;;
9473;SDS011;8865;47.636;7.692;2023-04-03T11:33:47;0.93;;;0.93;;
9473;SDS011;8865;47.636;7.692;2023-04-03T11:36:22;1.40;;;1.00;;
9473;SDS011;8865;47.636;7.692;2023-04-03T11:38:52;1.10;;;1.00;;
9473;SDS011;8865;47.636;7.692;2023-04-03T11:41:25;1.17;;;0.90;;
9473;SDS011;8865;47.636;7.692;2023-04-03T12:08:26;1.30;;;1.20;;
9473;SDS011;8865;47.636;7.692;2023-04-03T12:13:42;1.40;;;1.30;;
9473;SDS011;8865;47.636;7.692;2023-04-03T12:19:00;1.57;;;1.17;;
9473;SDS011;8865;47.636;7.692;2023-04-03T12:24:26;1.40;;;1.30;;
9473;SDS011;8865;47.636;7.692;2023-04-03T12:29:23;2.10;;;1.43;;
9473;SDS011;8865;47.636;7.692;2023-04-03T12:48:26;1.73;;;1.60;;
9473;SDS011;8865;47.636;7.692;2023-04-03T12:50:55;1.40;;;1.30;;
9473;SDS011;8865;47.636;7.692;2023-04-03T12:53:31;1.70;;;1.40;;
9473;SDS011;8865;47.636;7.692;2023-04-03T12:56:18;1.50;;;1.40;;
9473;SDS011;8865;47.636;7.692;2023-04-03T12:58:49;1.50;;;1.40;;
9473;SDS011;8865;47.636;7.692;2023-04-03T13:01:17;1.60;;;1.27;;
9473;SDS011;8865;47.636;7.692;2023-04-03T13:03:48;1.90;;;1.70;;
9473;SDS011;8865;47.636;7.692;2023-04-03T13:08:56;2.67;;;2.47;;
9473;SDS011;8865;47.636;7.692;2023-04-03T13:12:00;1.83;;;1.60;;
9473;SDS011;8865;47.636;7.692;2023-04-03T13:14:24;1.90;;;1.80;;
9473;SDS011;8865;47.636;7.692;2023-04-03T13:17:03;1.93;;;1.53;;
9473;SDS011;8865;47.636;7.692;2023-04-03T13:19:36;1.93;;;1.50;;
9473;SDS011;8865;47.636;7.692;2023-04-03T13:22:04;2.17;;;1.97;;
9473;SDS011;8865;47.636;7.692;2023-04-03T13:24:34;2.37;;;1.80;;
9473;SDS011;8865;47.636;7.692;2023-04-03T13:27:03;1.90;;;1.80;;
9473;SDS011;8865;47.636;7.692;2023-04-03T13:29:32;3.20;;;1.90;;
9473;SDS011;8865;47.636;7.692;2023-04-03T13:32:01;1.93;;;1.83;;
9473;SDS011;8865;47.636;7.692;2023-04-03T13:34:34;2.90;;;2.03;;
9473;SDS011;8865;47.636;7.692;2023-04-03T13:37:02;1.73;;;1.63;;
9473;SDS011;8865;47.636;7.692;2023-04-03T13:39:30;2.80;;;2.07;;
9473;SDS011;8865;47.636;7.692;2023-04-03T13:42:03;2.20;;;2.00;;
9473;SDS011;8865;47.636;7.692;2023-04-03T13:44:48;2.10;;;1.90;;
9473;SDS011;8865;47.636;7.692;2023-04-03T13:47:19;1.90;;;1.80;;
9473;SDS011;8865;47.636;7.692;2023-04-03T13:52:42;2.20;;;2.00;;
9473;SDS011;8865;47.636;7.692;2023-04-03T13:55:15;2.27;;;1.60;;
9473;SDS011;8865;47.636;7.692;2023-04-03T13:57:58;2.73;;;1.70;;
9473;SDS011;8865;47.636;7.692;2023-04-03T14:03:19;1.77;;;1.67;;
9473;SDS011;8865;47.636;7.692;2023-04-03T14:05:48;2.10;;;1.90;;
9473;SDS011;8865;47.636;7.692;2023-04-03T14:08:15;1.70;;;1.60;;
9473;SDS011;8865;47.636;7.692;2023-04-03T14:10:41;1.80;;;1.70;;
9473;SDS011;8865;47.636;7.692;2023-04-03T14:13:12;1.90;;;1.80;;
9473;SDS011;8865;47.636;7.692;2023-04-03T14:15:41;3.20;;;2.83;;
9473;SDS011;8865;47.636;7.692;2023-04-03T14:18:15;2.83;;;1.97;;
9473;SDS011;8865;47.636;7.692;2023-04-03T14:20:44;2.00;;;1.80;;
9473;SDS011;8865;47.636;7.692;2023-04-03T14:23:11;2.80;;;2.40;;
9473;SDS011;8865;47.636;7.692;2023-04-03T14:25:37;2.33;;;2.13;;
9473;SDS011;8865;47.636;7.692;2023-04-03T14:28:12;1.90;;;1.80;;
9473;SDS011;8865;47.636;7.692;2023-04-03T14:30:42;2.47;;;2.27;;
9473;SDS011;8865;47.636;7.692;2023-04-03T14:33:14;2.23;;;1.80;;
9473;SDS011;8865;47.636;7.692;2023-04-03T14:35:42;2.53;;;2.33;;
9473;SDS011;8865;47.636;7.692;2023-04-03T14:38:28;2.00;;;1.80;;
9473;SDS011;8865;47.636;7.692;2023-04-03T14:40:56;2.93;;;2.40;;
9473;SDS011;8865;47.636;7.692;2023-04-03T14:43:23;2.87;;;2.60;;
9473;SDS011;8865;47.636;7.692;2023-04-03T14:45:49;1.77;;;1.67;;
9473;SDS011;8865;47.636;7.692;2023-04-03T14:48:18;2.37;;;2.10;;
9473;SDS011;8865;47.636;7.692;2023-04-03T14:50:47;3.13;;;1.70;;
9473;SDS011;8865;47.636;7.692;2023-04-03T14:53:15;3.07;;;2.70;;
9473;SDS011;8865;47.636;7.692;2023-04-03T14:55:43;1.60;;;1.50;;
9473;SDS011;8865;47.636;7.692;2023-04-03T14:58:14;2.20;;;2.00;;
9473;SDS011;8865;47.636;7.692;2023-04-03T15:00:42;2.03;;;1.60;;
9473;SDS011;8865;47.636;7.692;2023-04-03T15:03:18;1.80;;;1.70;;
9473;SDS011;8865;47.636;7.692;2023-04-03T15:05:48;2.00;;;1.90;;
9473;SDS011;8865;47.636;7.692;2023-04-03T15:08:19;2.33;;;2.13;;
9473;SDS011;8865;47.636;7.692;2023-04-03T15:10:48;2.00;;;1.80;;
9473;SDS011;8865;47.636;7.692;2023-04-03T15:13:14;2.03;;;1.83;;
9473;SDS011;8865;47.636;7.692;2023-04-03T15:15:40;1.83;;;1.70;;
9473;SDS011;8865;47.636;7.692;2023-04-03T15:18:09;1.97;;;1.63;;
9473;SDS011;8865;47.636;7.692;2023-04-03T15:20:39;1.77;;;1.60;;
9473;SDS011;8865;47.636;7.692;2023-04-03T15:23:06;1.70;;;1.60;;
9473;SDS011;8865;47.636;7.692;2023-04-03T15:25:32;1.70;;;1.60;;
9473;SDS011;8865;47.636;7.692;2023-04-03T15:27:58;2.00;;;1.80;;
9473;SDS011;8865;47.636;7.692;2023-04-03T15:30:25;2.10;;;1.90;;
9473;SDS011;8865;47.636;7.692;2023-04-03T15:32:51;1.77;;;1.67;;
9473;SDS011;8865;47.636;7.692;2023-04-03T15:35:18;1.70;;;1.57;;
9473;SDS011;8865;47.636;7.692;2023-04-03T15:37:45;4.30;;;1.70;;
9473;SDS011;8865;47.636;7.692;2023-04-03T15:40:11;3.17;;;1.77;;
9473;SDS011;8865;47.636;7.692;2023-04-03T15:42:37;2.23;;;1.70;;
9473;SDS011;8865;47.636;7.692;2023-04-03T15:45:04;1.73;;;1.60;;
9473;SDS011;8865;47.636;7.692;2023-04-03T15:47:30;2.83;;;1.87;;
9473;SDS011;8865;47.636;7.692;2023-04-03T15:49:56;3.03;;;1.80;;
9473;SDS011;8865;47.636;7.692;2023-04-03T15:52:23;3.23;;;1.80;;
9473;SDS011;8865;47.636;7.692;2023-04-03T15:54:49;1.60;;;1.50;;
9473;SDS011;8865;47.636;7.692;2023-04-03T15:57:15;1.70;;;1.60;;
9473;SDS011;8865;47.636;7.692;2023-04-03T15:59:41;1.83;;;1.67;;
9473;SDS011;8865;47.636;7.692;2023-04-03T16:02:07;1.80;;;1.70;;
9473;SDS011;8865;47.636;7.692;2023-04-03T16:04:35;1.70;;;1.60;;
9473;SDS011;8865;47.636;7.692;2023-04-03T16:07:02;2.87;;;1.90;;
9473;SDS011;8865;47.636;7.692;2023-04-03T16:09:30;3.43;;;2.37;;
9473;SDS011;8865;47.636;7.692;2023-04-03T16:12:00;3.67;;;2.17;;
9473;SDS011;8865;47.636;7.692;2023-04-03T16:14:27;2.50;;;2.07;;
9473;SDS011;8865;47.636;7.692;2023-04-03T16:16:57;3.13;;;2.00;;
9473;SDS011;8865;47.636;7.692;2023-04-03T16:19:24;1.80;;;1.70;;
9473;SDS011;8865;47.636;7.692;2023-04-03T16:21:50;1.97;;;1.60;;
9473;SDS011;8865;47.636;7.692;2023-04-03T16:24:16;2.23;;;1.80;;
9473;SDS011;8865;47.636;7.692;2023-04-03T16:26:42;2.10;;;1.80;;
9473;SDS011;8865;47.636;7.692;2023-04-03T16:29:08;2.67;;;1.90;;
9473;SDS011;8865;47.636;7.692;2023-04-03T16:31:34;2.00;;;1.80;;
9473;SDS011;8865;47.636;7.692;2023-04-03T16:34:01;5.33;;;3.83;;
9473;SDS011;8865;47.636;7.692;2023-04-03T16:36:27;8.00;;;7.20;;
9473;SDS011;8865;47.636;7.692;2023-04-03T16:38:53;2.67;;;2.17;;
9473;SDS011;8865;47.636;7.692;2023-04-03T16:41:19;4.17;;;3.60;;
9473;SDS011;8865;47.636;7.692;2023-04-03T16:43:45;2.77;;;2.53;;
9473;SDS011;8865;47.636;7.692;2023-04-03T16:46:11;2.20;;;2.00;;
9473;SDS011;8865;47.636;7.692;2023-04-03T16:58:42;2.33;;;1.90;;
9473;SDS011;8865;47.636;7.692;2023-04-03T17:01:18;2.40;;;2.20;;
9473;SDS011;8865;47.636;7.692;2023-04-03T17:03:44;4.37;;;3.60;;
9473;SDS011;8865;47.636;7.692;2023-04-03T17:06:11;3.73;;;3.30;;
9473;SDS011;8865;47.636;7.692;2023-04-03T17:08:42;3.40;;;3.10;;
9473;SDS011;8865;47.636;7.692;2023-04-03T17:11:09;5.43;;;4.83;;